createdAt,value
2023-05-12T00:00:03.000Z,281.9618768328475
2023-05-12T00:01:05.000Z,282.9374389051838
2023-05-12T00:02:07.000Z,284.40078201368823
2023-05-12T00:03:10.000Z,283.9130009775201
2023-05-12T00:04:12.000Z,281.9618768328475
2023-05-12T00:05:14.000Z,282.9374389051838
2023-05-12T00:06:17.000Z,282.44965786901565
2023-05-12T00:07:19.000Z,284.8885630498564
2023-05-12T00:08:21.000Z,282.44965786901565
2023-05-12T00:09:23.000Z,281.9618768328475
2023-05-12T00:10:26.000Z,284.40078201368823
2023-05-12T00:11:28.000Z,283.9130009775201
2023-05-12T00:12:30.000Z,284.40078201368823
2023-05-12T00:13:32.000Z,285.3763440860245
2023-05-12T00:14:35.000Z,283.9130009775201
2023-05-12T00:15:37.000Z,284.8885630498564
2023-05-12T00:16:39.000Z,282.9374389051838
2023-05-12T00:17:42.000Z,283.9130009775201
2023-05-12T00:18:44.000Z,282.9374389051838
2023-05-12T00:19:46.000Z,282.9374389051838
2023-05-12T00:20:49.000Z,282.9374389051838
2023-05-12T00:21:51.000Z,283.9130009775201
2023-05-12T00:22:53.000Z,284.40078201368823
2023-05-12T00:23:56.000Z,281.9618768328475
2023-05-12T00:24:58.000Z,282.9374389051838
2023-05-12T00:26:00.000Z,282.9374389051838
2023-05-12T00:27:02.000Z,282.44965786901565
2023-05-12T00:28:05.000Z,282.9374389051838
2023-05-12T00:29:07.000Z,282.9374389051838
2023-05-12T00:30:09.000Z,281.47409579667936
2023-05-12T00:31:12.000Z,282.9374389051838
2023-05-12T00:32:14.000Z,284.40078201368823
2023-05-12T00:33:16.000Z,282.44965786901565
2023-05-12T00:34:18.000Z,283.9130009775201
2023-05-12T00:35:21.000Z,281.47409579667936
2023-05-12T00:36:23.000Z,282.44965786901565
2023-05-12T00:37:25.000Z,283.9130009775201
2023-05-12T00:38:28.000Z,283.9130009775201
2023-05-12T00:39:30.000Z,282.44965786901565
2023-05-12T00:40:32.000Z,282.44965786901565
2023-05-12T00:41:34.000Z,283.9130009775201
2023-05-12T00:42:37.000Z,283.9130009775201
2023-05-12T00:43:39.000Z,282.9374389051838
2023-05-12T00:44:41.000Z,284.8885630498564
2023-05-12T00:45:44.000Z,282.9374389051838
2023-05-12T00:46:46.000Z,282.44965786901565
2023-05-12T00:47:48.000Z,282.9374389051838
2023-05-12T00:48:50.000Z,282.9374389051838
2023-05-12T00:49:53.000Z,282.9374389051838
2023-05-12T00:50:55.000Z,283.42521994135194
2023-05-12T00:51:57.000Z,281.9618768328475
2023-05-12T00:53:00.000Z,281.9618768328475
2023-05-12T00:54:02.000Z,281.47409579667936
2023-05-12T00:55:04.000Z,280.4985337243431
2023-05-12T00:56:07.000Z,280.9863147605112
2023-05-12T00:57:09.000Z,282.44965786901565
2023-05-12T00:58:11.000Z,281.9618768328475
2023-05-12T00:59:14.000Z,282.44965786901565
2023-05-12T01:00:16.000Z,282.44965786901565
2023-05-12T01:01:18.000Z,282.44965786901565
2023-05-12T01:02:21.000Z,282.44965786901565
2023-05-12T01:03:23.000Z,281.47409579667936
2023-05-12T01:04:25.000Z,281.9618768328475
2023-05-12T01:05:27.000Z,283.42521994135194
2023-05-12T01:06:30.000Z,283.9130009775201
2023-05-12T01:07:32.000Z,284.40078201368823
2023-05-12T01:08:35.000Z,283.9130009775201
2023-05-12T01:09:37.000Z,284.40078201368823
2023-05-12T01:10:39.000Z,285.86412512219266
2023-05-12T01:11:41.000Z,285.3763440860245
2023-05-12T01:12:44.000Z,284.40078201368823
2023-05-12T01:13:46.000Z,283.9130009775201
2023-05-12T01:14:48.000Z,283.9130009775201
2023-05-12T01:15:51.000Z,282.9374389051838
2023-05-12T01:16:53.000Z,283.9130009775201
2023-05-12T01:17:55.000Z,284.40078201368823
2023-05-12T01:18:57.000Z,282.9374389051838
2023-05-12T01:20:00.000Z,282.9374389051838
2023-05-12T01:21:02.000Z,281.9618768328475
2023-05-12T01:22:05.000Z,282.9374389051838
2023-05-12T01:23:07.000Z,283.42521994135194
2023-05-12T01:24:09.000Z,282.9374389051838
2023-05-12T01:25:12.000Z,283.42521994135194
2023-05-12T01:26:14.000Z,282.9374389051838
2023-05-12T01:27:16.000Z,281.47409579667936
2023-05-12T01:28:18.000Z,281.47409579667936
2023-05-12T01:29:21.000Z,282.9374389051838
2023-05-12T01:30:23.000Z,282.9374389051838
2023-05-12T01:31:26.000Z,282.44965786901565
2023-05-12T01:32:28.000Z,282.9374389051838
2023-05-12T01:33:30.000Z,284.40078201368823
2023-05-12T01:34:32.000Z,285.3763440860245
2023-05-12T01:35:35.000Z,284.40078201368823
2023-05-12T01:36:37.000Z,283.42521994135194
2023-05-12T01:37:39.000Z,283.42521994135194
2023-05-12T01:38:42.000Z,284.40078201368823
2023-05-12T01:39:44.000Z,284.8885630498564
2023-05-12T01:40:46.000Z,284.8885630498564
2023-05-12T01:41:48.000Z,284.40078201368823
2023-05-12T01:42:51.000Z,284.40078201368823
2023-05-12T01:43:53.000Z,284.40078201368823
2023-05-12T01:44:55.000Z,284.40078201368823
2023-05-12T01:45:58.000Z,284.40078201368823
2023-05-12T01:47:00.000Z,280.9863147605112
2023-05-12T01:48:02.000Z,281.47409579667936
2023-05-12T01:49:05.000Z,282.44965786901565
2023-05-12T01:50:07.000Z,282.9374389051838
2023-05-12T01:51:09.000Z,282.9374389051838
2023-05-12T01:52:11.000Z,282.44965786901565
2023-05-12T01:53:14.000Z,283.9130009775201
2023-05-12T01:54:16.000Z,282.44965786901565
2023-05-12T01:55:18.000Z,282.44965786901565
2023-05-12T01:56:20.000Z,281.47409579667936
2023-05-12T01:57:23.000Z,282.9374389051838
2023-05-12T01:58:25.000Z,283.42521994135194
2023-05-12T01:59:27.000Z,282.9374389051838
2023-05-12T02:00:30.000Z,283.9130009775201
2023-05-12T02:01:32.000Z,284.40078201368823
2023-05-12T02:02:34.000Z,283.9130009775201
2023-05-12T02:03:36.000Z,284.40078201368823
2023-05-12T02:04:39.000Z,283.42521994135194
2023-05-12T02:05:41.000Z,284.8885630498564
2023-05-12T02:06:43.000Z,284.8885630498564
2023-05-12T02:07:46.000Z,284.8885630498564
2023-05-12T02:08:48.000Z,284.8885630498564
2023-05-12T02:09:50.000Z,284.8885630498564
2023-05-12T02:10:53.000Z,286.3519061583608
2023-05-12T02:11:55.000Z,283.42521994135194
2023-05-12T02:12:57.000Z,283.42521994135194
2023-05-12T02:13:59.000Z,283.9130009775201
2023-05-12T02:15:02.000Z,283.42521994135194
2023-05-12T02:16:04.000Z,283.42521994135194
2023-05-12T02:17:06.000Z,282.9374389051838
2023-05-12T02:18:09.000Z,282.9374389051838
2023-05-12T02:19:11.000Z,282.9374389051838
2023-05-12T02:20:13.000Z,282.9374389051838
2023-05-12T02:21:16.000Z,282.9374389051838
2023-05-12T02:22:18.000Z,281.47409579667936
2023-05-12T02:23:20.000Z,283.42521994135194
2023-05-12T02:24:23.000Z,283.9130009775201
2023-05-12T02:25:25.000Z,281.9618768328475
2023-05-12T02:26:27.000Z,283.42521994135194
2023-05-12T02:27:29.000Z,283.42521994135194
2023-05-12T02:28:32.000Z,284.40078201368823
2023-05-12T02:29:34.000Z,284.8885630498564
2023-05-12T02:30:36.000Z,285.3763440860245
2023-05-12T02:31:39.000Z,283.42521994135194
2023-05-12T02:32:41.000Z,285.3763440860245
2023-05-12T02:33:43.000Z,283.42521994135194
2023-05-12T02:34:45.000Z,282.9374389051838
2023-05-12T02:35:48.000Z,282.44965786901565
2023-05-12T02:36:50.000Z,283.42521994135194
2023-05-12T02:37:52.000Z,283.9130009775201
2023-05-12T02:38:55.000Z,283.42521994135194
2023-05-12T02:39:57.000Z,284.40078201368823
2023-05-12T02:40:59.000Z,284.8885630498564
2023-05-12T02:42:02.000Z,284.8885630498564
2023-05-12T02:43:04.000Z,283.9130009775201
2023-05-12T02:44:06.000Z,283.9130009775201
2023-05-12T02:45:08.000Z,283.42521994135194
2023-05-12T02:46:11.000Z,282.44965786901565
2023-05-12T02:47:13.000Z,282.44965786901565
2023-05-12T02:48:15.000Z,282.44965786901565
2023-05-12T02:49:18.000Z,283.9130009775201
2023-05-12T02:50:20.000Z,283.9130009775201
2023-05-12T02:51:22.000Z,283.42521994135194
2023-05-12T02:52:24.000Z,283.42521994135194
2023-05-12T02:53:27.000Z,284.40078201368823
2023-05-12T02:54:29.000Z,283.42521994135194
2023-05-12T02:55:32.000Z,283.42521994135194
2023-05-12T02:56:34.000Z,283.9130009775201
2023-05-12T02:57:36.000Z,284.8885630498564
2023-05-12T02:58:38.000Z,285.3763440860245
2023-05-12T02:59:41.000Z,284.8885630498564
2023-05-12T03:00:43.000Z,284.8885630498564
2023-05-12T03:01:45.000Z,284.8885630498564
2023-05-12T03:02:47.000Z,285.3763440860245
2023-05-12T03:03:50.000Z,283.9130009775201
2023-05-12T03:04:52.000Z,283.42521994135194
2023-05-12T03:05:54.000Z,283.9130009775201
2023-05-12T03:06:56.000Z,286.83968719452895
2023-05-12T03:07:59.000Z,284.40078201368823
2023-05-12T03:09:01.000Z,285.86412512219266
2023-05-12T03:10:03.000Z,283.9130009775201
2023-05-12T03:11:06.000Z,283.9130009775201
2023-05-12T03:12:08.000Z,283.42521994135194
2023-05-12T03:13:10.000Z,283.9130009775201
2023-05-12T03:14:13.000Z,283.9130009775201
2023-05-12T03:15:15.000Z,282.9374389051838
2023-05-12T03:16:17.000Z,283.42521994135194
2023-05-12T03:17:20.000Z,283.9130009775201
2023-05-12T03:18:22.000Z,283.42521994135194
2023-05-12T03:19:24.000Z,283.9130009775201
2023-05-12T03:20:26.000Z,281.9618768328475
2023-05-12T03:21:29.000Z,282.9374389051838
2023-05-12T03:22:31.000Z,283.42521994135194
2023-05-12T03:23:33.000Z,283.9130009775201
2023-05-12T03:24:36.000Z,284.8885630498564
2023-05-12T03:25:38.000Z,284.8885630498564
2023-05-12T03:26:40.000Z,283.9130009775201
2023-05-12T03:27:42.000Z,285.3763440860245
2023-05-12T03:28:45.000Z,285.3763440860245
2023-05-12T03:29:47.000Z,285.86412512219266
2023-05-12T03:30:49.000Z,283.42521994135194
2023-05-12T03:31:52.000Z,283.9130009775201
2023-05-12T03:32:54.000Z,285.3763440860245
2023-05-12T03:33:56.000Z,284.8885630498564
2023-05-12T03:34:59.000Z,283.9130009775201
2023-05-12T03:36:01.000Z,284.40078201368823
2023-05-12T03:37:03.000Z,285.86412512219266
2023-05-12T03:38:06.000Z,283.9130009775201
2023-05-12T03:39:08.000Z,283.9130009775201
2023-05-12T03:40:10.000Z,282.9374389051838
2023-05-12T03:41:12.000Z,282.44965786901565
2023-05-12T03:42:15.000Z,283.9130009775201
2023-05-12T03:43:17.000Z,284.40078201368823
2023-05-12T03:44:19.000Z,284.40078201368823
2023-05-12T03:45:21.000Z,283.9130009775201
2023-05-12T03:46:24.000Z,284.8885630498564
2023-05-12T03:47:26.000Z,283.42521994135194
2023-05-12T03:48:28.000Z,282.44965786901565
2023-05-12T03:49:31.000Z,281.9618768328475
2023-05-12T03:50:33.000Z,283.42521994135194
2023-05-12T03:51:35.000Z,284.8885630498564
2023-05-12T03:52:38.000Z,285.3763440860245
2023-05-12T03:53:40.000Z,286.83968719452895
2023-05-12T03:54:42.000Z,284.40078201368823
2023-05-12T03:55:45.000Z,285.86412512219266
2023-05-12T03:56:47.000Z,285.86412512219266
2023-05-12T03:57:49.000Z,286.83968719452895
2023-05-12T03:58:51.000Z,284.40078201368823
2023-05-12T03:59:54.000Z,284.40078201368823
2023-05-12T04:00:56.000Z,285.86412512219266
2023-05-12T04:01:58.000Z,286.3519061583608
2023-05-12T04:03:01.000Z,285.86412512219266
2023-05-12T04:04:03.000Z,285.3763440860245
2023-05-12T04:05:05.000Z,285.3763440860245
2023-05-12T04:06:08.000Z,283.9130009775201
2023-05-12T04:07:10.000Z,283.9130009775201
2023-05-12T04:08:12.000Z,283.9130009775201
2023-05-12T04:09:14.000Z,283.9130009775201
2023-05-12T04:10:17.000Z,281.47409579667936
2023-05-12T04:11:19.000Z,284.8885630498564
2023-05-12T04:12:21.000Z,283.9130009775201
2023-05-12T04:13:24.000Z,284.40078201368823
2023-05-12T04:14:26.000Z,282.9374389051838
2023-05-12T04:15:28.000Z,283.9130009775201
2023-05-12T04:16:31.000Z,282.9374389051838
2023-05-12T04:17:33.000Z,283.42521994135194
2023-05-12T04:18:35.000Z,282.44965786901565
2023-05-12T04:19:38.000Z,283.42521994135194
2023-05-12T04:20:40.000Z,285.86412512219266
2023-05-12T04:21:42.000Z,285.3763440860245
2023-05-12T04:22:44.000Z,285.3763440860245
2023-05-12T04:23:47.000Z,286.83968719452895
2023-05-12T04:24:49.000Z,285.3763440860245
2023-05-12T04:25:51.000Z,285.3763440860245
2023-05-12T04:26:54.000Z,285.3763440860245
2023-05-12T04:27:56.000Z,283.9130009775201
2023-05-12T04:28:58.000Z,284.40078201368823
2023-05-12T04:30:01.000Z,285.86412512219266
2023-05-12T04:31:03.000Z,285.86412512219266
2023-05-12T04:32:05.000Z,286.3519061583608
2023-05-12T04:33:08.000Z,284.40078201368823
2023-05-12T04:34:10.000Z,284.8885630498564
2023-05-12T04:35:12.000Z,284.40078201368823
2023-05-12T04:36:14.000Z,283.42521994135194
2023-05-12T04:37:17.000Z,284.40078201368823
2023-05-12T04:38:19.000Z,284.40078201368823
2023-05-12T04:39:21.000Z,284.8885630498564
2023-05-12T04:40:23.000Z,283.42521994135194
2023-05-12T04:41:26.000Z,284.40078201368823
2023-05-12T04:42:28.000Z,282.9374389051838
2023-05-12T04:43:30.000Z,283.9130009775201
2023-05-12T04:44:33.000Z,282.44965786901565
2023-05-12T04:45:35.000Z,284.40078201368823
2023-05-12T04:46:37.000Z,283.9130009775201
2023-05-12T04:47:40.000Z,285.86412512219266
2023-05-12T04:48:42.000Z,285.3763440860245
2023-05-12T04:49:44.000Z,285.3763440860245
2023-05-12T04:50:47.000Z,285.86412512219266
2023-05-12T04:51:49.000Z,286.83968719452895
2023-05-12T04:52:51.000Z,285.3763440860245
2023-05-12T04:53:53.000Z,285.86412512219266
2023-05-12T04:54:56.000Z,286.3519061583608
2023-05-12T04:55:58.000Z,285.86412512219266
2023-05-12T04:57:00.000Z,285.86412512219266
2023-05-12T04:58:03.000Z,285.86412512219266
2023-05-12T04:59:05.000Z,284.40078201368823
2023-05-12T05:00:07.000Z,285.86412512219266
2023-05-12T05:01:10.000Z,284.40078201368823
2023-05-12T05:02:12.000Z,283.9130009775201
2023-05-12T05:03:14.000Z,284.40078201368823
2023-05-12T05:04:16.000Z,284.40078201368823
2023-05-12T05:05:19.000Z,284.40078201368823
2023-05-12T05:06:21.000Z,284.40078201368823
2023-05-12T05:07:24.000Z,283.9130009775201
2023-05-12T05:08:26.000Z,282.9374389051838
2023-05-12T05:09:28.000Z,284.40078201368823
2023-05-12T05:10:30.000Z,283.9130009775201
2023-05-12T05:11:33.000Z,283.9130009775201
2023-05-12T05:12:35.000Z,283.9130009775201
2023-05-12T05:13:38.000Z,284.40078201368823
2023-05-12T05:14:40.000Z,285.3763440860245
2023-05-12T05:15:42.000Z,285.3763440860245
2023-05-12T05:16:44.000Z,284.40078201368823
2023-05-12T05:17:47.000Z,285.86412512219266
2023-05-12T05:18:49.000Z,285.3763440860245
2023-05-12T05:19:51.000Z,284.8885630498564
2023-05-12T05:20:54.000Z,284.8885630498564
2023-05-12T05:21:56.000Z,285.3763440860245
2023-05-12T05:22:58.000Z,285.86412512219266
2023-05-12T05:24:01.000Z,284.40078201368823
2023-05-12T05:25:03.000Z,284.8885630498564
2023-05-12T05:26:05.000Z,283.9130009775201
2023-05-12T05:27:08.000Z,286.83968719452895
2023-05-12T05:28:10.000Z,285.3763440860245
2023-05-12T05:29:12.000Z,284.40078201368823
2023-05-12T05:30:14.000Z,281.9618768328475
2023-05-12T05:31:17.000Z,283.42521994135194
2023-05-12T05:32:19.000Z,283.42521994135194
2023-05-12T05:33:21.000Z,282.9374389051838
2023-05-12T05:34:24.000Z,283.9130009775201
2023-05-12T05:35:26.000Z,283.42521994135194
2023-05-12T05:36:29.000Z,283.42521994135194
2023-05-12T05:37:31.000Z,283.42521994135194
2023-05-12T05:38:33.000Z,283.42521994135194
2023-05-12T05:39:35.000Z,283.42521994135194
2023-05-12T05:40:38.000Z,283.42521994135194
2023-05-12T05:41:40.000Z,282.9374389051838
2023-05-12T05:42:42.000Z,284.8885630498564
2023-05-12T05:43:45.000Z,284.8885630498564
2023-05-12T05:44:47.000Z,285.3763440860245
2023-05-12T05:45:49.000Z,284.40078201368823
2023-05-12T05:46:51.000Z,284.8885630498564
2023-05-12T05:47:54.000Z,284.8885630498564
2023-05-12T05:48:56.000Z,283.9130009775201
2023-05-12T05:49:58.000Z,285.3763440860245
2023-05-12T05:51:01.000Z,284.8885630498564
2023-05-12T05:52:03.000Z,285.3763440860245
2023-05-12T05:53:05.000Z,286.3519061583608
2023-05-12T05:54:08.000Z,284.40078201368823
2023-05-12T05:55:10.000Z,285.3763440860245
2023-05-12T05:56:12.000Z,284.40078201368823
2023-05-12T05:57:14.000Z,284.40078201368823
2023-05-12T05:58:17.000Z,285.3763440860245
2023-05-12T05:59:19.000Z,284.40078201368823
2023-05-12T06:00:21.000Z,282.9374389051838
2023-05-12T06:01:24.000Z,282.9374389051838
2023-05-12T06:02:26.000Z,283.9130009775201
2023-05-12T06:03:28.000Z,283.9130009775201
2023-05-12T06:04:31.000Z,282.9374389051838
2023-05-12T06:05:33.000Z,283.9130009775201
2023-05-12T06:06:35.000Z,283.9130009775201
2023-05-12T06:07:38.000Z,283.9130009775201
2023-05-12T06:08:40.000Z,283.42521994135194
2023-05-12T06:09:42.000Z,284.40078201368823
2023-05-12T06:10:45.000Z,283.9130009775201
2023-05-12T06:11:47.000Z,284.40078201368823
2023-05-12T06:12:49.000Z,284.8885630498564
2023-05-12T06:13:51.000Z,284.8885630498564
2023-05-12T06:14:54.000Z,285.3763440860245
2023-05-12T06:15:56.000Z,284.8885630498564
2023-05-12T06:16:58.000Z,285.3763440860245
2023-05-12T06:18:01.000Z,283.9130009775201
2023-05-12T06:19:03.000Z,285.86412512219266
2023-05-12T06:20:05.000Z,286.3519061583608
2023-05-12T06:21:08.000Z,285.86412512219266
2023-05-12T06:22:10.000Z,285.86412512219266
2023-05-12T06:23:12.000Z,285.86412512219266
2023-05-12T06:24:15.000Z,283.9130009775201
2023-05-12T06:25:17.000Z,282.9374389051838
2023-05-12T06:26:19.000Z,284.40078201368823
2023-05-12T06:27:22.000Z,283.9130009775201
2023-05-12T06:28:24.000Z,283.9130009775201
2023-05-12T06:29:26.000Z,284.40078201368823
2023-05-12T06:30:29.000Z,284.40078201368823
2023-05-12T06:31:31.000Z,284.40078201368823
2023-05-12T06:32:33.000Z,284.40078201368823
2023-05-12T06:33:36.000Z,283.9130009775201
2023-05-12T06:34:38.000Z,283.9130009775201
2023-05-12T06:35:40.000Z,282.9374389051838
2023-05-12T06:36:42.000Z,282.9374389051838
2023-05-12T06:37:45.000Z,285.3763440860245
2023-05-12T06:38:47.000Z,284.8885630498564
2023-05-12T06:39:49.000Z,285.3763440860245
2023-05-12T06:40:51.000Z,285.3763440860245
2023-05-12T06:41:54.000Z,285.86412512219266
2023-05-12T06:42:56.000Z,285.86412512219266
2023-05-12T06:43:58.000Z,285.3763440860245
2023-05-12T06:45:01.000Z,285.86412512219266
2023-05-12T06:46:03.000Z,286.3519061583608
2023-05-12T06:47:05.000Z,284.8885630498564
2023-05-12T06:48:07.000Z,285.3763440860245
2023-05-12T06:49:10.000Z,285.86412512219266
2023-05-12T06:50:12.000Z,285.3763440860245
2023-05-12T06:51:14.000Z,286.3519061583608
2023-05-12T06:52:17.000Z,285.3763440860245
2023-05-12T06:53:19.000Z,284.8885630498564
2023-05-12T06:54:21.000Z,284.8885630498564
2023-05-12T06:55:23.000Z,283.9130009775201
2023-05-12T06:56:26.000Z,283.42521994135194
2023-05-12T06:57:28.000Z,283.42521994135194
2023-05-12T06:58:30.000Z,283.42521994135194
2023-05-12T06:59:33.000Z,285.3763440860245
2023-05-12T07:00:35.000Z,286.83968719452895
2023-05-12T07:01:37.000Z,284.8885630498564
2023-05-12T07:02:40.000Z,284.40078201368823
2023-05-12T07:03:42.000Z,284.8885630498564
2023-05-12T07:04:44.000Z,284.40078201368823
2023-05-12T07:05:46.000Z,285.86412512219266
2023-05-12T07:06:49.000Z,285.3763440860245
2023-05-12T07:07:51.000Z,286.3519061583608
2023-05-12T07:08:53.000Z,285.3763440860245
2023-05-12T07:09:56.000Z,284.8885630498564
2023-05-12T07:10:58.000Z,285.3763440860245
2023-05-12T07:12:00.000Z,283.9130009775201
2023-05-12T07:13:02.000Z,283.9130009775201
2023-05-12T07:14:05.000Z,284.8885630498564
2023-05-12T07:15:07.000Z,284.8885630498564
2023-05-12T07:16:09.000Z,284.8885630498564
2023-05-12T07:17:12.000Z,285.3763440860245
2023-05-12T07:18:14.000Z,285.86412512219266
2023-05-12T07:19:16.000Z,284.8885630498564
2023-05-12T07:20:19.000Z,283.9130009775201
2023-05-12T07:21:21.000Z,283.42521994135194
2023-05-12T07:22:23.000Z,283.42521994135194
2023-05-12T07:23:26.000Z,283.9130009775201
2023-05-12T07:24:28.000Z,284.8885630498564
2023-05-12T07:25:30.000Z,283.42521994135194
2023-05-12T07:26:32.000Z,283.9130009775201
2023-05-12T07:27:35.000Z,282.44965786901565
2023-05-12T07:28:37.000Z,281.9618768328475
2023-05-12T07:29:39.000Z,281.47409579667936
2023-05-12T07:30:42.000Z,281.9618768328475
2023-05-12T07:31:44.000Z,282.9374389051838
2023-05-12T07:32:46.000Z,282.44965786901565
2023-05-12T07:33:49.000Z,284.40078201368823
2023-05-12T07:34:51.000Z,283.9130009775201
2023-05-12T07:35:53.000Z,282.44965786901565
2023-05-12T07:36:55.000Z,284.40078201368823
2023-05-12T07:37:58.000Z,283.9130009775201
2023-05-12T07:39:00.000Z,284.40078201368823
2023-05-12T07:40:02.000Z,285.3763440860245
2023-05-12T07:41:05.000Z,284.40078201368823
2023-05-12T07:42:07.000Z,284.8885630498564
2023-05-12T07:43:09.000Z,283.42521994135194
2023-05-12T07:44:11.000Z,284.40078201368823
2023-05-12T07:45:14.000Z,284.40078201368823
2023-05-12T07:46:16.000Z,284.40078201368823
2023-05-12T07:47:19.000Z,283.42521994135194
2023-05-12T07:48:21.000Z,283.42521994135194
2023-05-12T07:49:23.000Z,283.42521994135194
2023-05-12T07:50:25.000Z,283.9130009775201
2023-05-12T07:51:28.000Z,283.42521994135194
2023-05-12T07:52:30.000Z,283.42521994135194
2023-05-12T07:53:32.000Z,282.44965786901565
2023-05-12T07:54:35.000Z,281.9618768328475
2023-05-12T07:55:37.000Z,282.9374389051838
2023-05-12T07:56:39.000Z,283.42521994135194
2023-05-12T07:57:41.000Z,282.9374389051838
2023-05-12T07:58:44.000Z,283.42521994135194
2023-05-12T07:59:46.000Z,282.9374389051838
2023-05-12T08:00:48.000Z,283.9130009775201
2023-05-12T08:01:50.000Z,283.9130009775201
2023-05-12T08:02:53.000Z,283.42521994135194
2023-05-12T08:03:55.000Z,283.9130009775201
2023-05-12T08:04:57.000Z,284.8885630498564
2023-05-12T08:06:00.000Z,283.42521994135194
2023-05-12T08:07:02.000Z,282.9374389051838
2023-05-12T08:08:04.000Z,282.44965786901565
2023-05-12T08:09:06.000Z,281.47409579667936
2023-05-12T08:10:09.000Z,283.42521994135194
2023-05-12T08:11:11.000Z,282.9374389051838
2023-05-12T08:12:13.000Z,283.9130009775201
2023-05-12T08:13:16.000Z,284.40078201368823
2023-05-12T08:14:18.000Z,284.40078201368823
2023-05-12T08:15:20.000Z,283.42521994135194
2023-05-12T08:16:23.000Z,283.42521994135194
2023-05-12T08:17:25.000Z,283.42521994135194
2023-05-12T08:18:27.000Z,282.9374389051838
2023-05-12T08:19:30.000Z,283.9130009775201
2023-05-12T08:20:32.000Z,282.9374389051838
2023-05-12T08:21:34.000Z,284.40078201368823
2023-05-12T08:22:36.000Z,282.9374389051838
2023-05-12T08:23:39.000Z,282.9374389051838
2023-05-12T08:24:41.000Z,282.44965786901565
2023-05-12T08:25:43.000Z,282.9374389051838
2023-05-12T08:26:46.000Z,281.9618768328475
2023-05-12T08:27:48.000Z,281.9618768328475
2023-05-12T08:28:50.000Z,283.9130009775201
2023-05-12T08:29:52.000Z,284.40078201368823
2023-05-12T08:30:55.000Z,284.40078201368823
2023-05-12T08:31:57.000Z,284.40078201368823
2023-05-12T08:33:00.000Z,284.40078201368823
2023-05-12T08:34:02.000Z,284.40078201368823
2023-05-12T08:35:04.000Z,284.40078201368823
2023-05-12T08:36:06.000Z,284.8885630498564
2023-05-12T08:37:09.000Z,284.8885630498564
2023-05-12T08:38:11.000Z,284.40078201368823
2023-05-12T08:39:13.000Z,284.8885630498564
2023-05-12T08:40:16.000Z,284.8885630498564
2023-05-12T08:41:18.000Z,283.9130009775201
2023-05-12T08:42:20.000Z,283.9130009775201
2023-05-12T08:43:22.000Z,283.9130009775201
2023-05-12T08:44:25.000Z,282.9374389051838
2023-05-12T08:45:27.000Z,283.42521994135194
2023-05-12T08:46:29.000Z,283.42521994135194
2023-05-12T08:47:32.000Z,283.42521994135194
2023-05-12T08:48:34.000Z,283.9130009775201
2023-05-12T08:49:36.000Z,282.9374389051838
2023-05-12T08:50:39.000Z,283.42521994135194
2023-05-12T08:51:41.000Z,283.42521994135194
2023-05-12T08:52:43.000Z,284.40078201368823
2023-05-12T08:53:45.000Z,283.42521994135194
2023-05-12T08:54:48.000Z,282.44965786901565
2023-05-12T08:55:50.000Z,282.44965786901565
2023-05-12T08:56:52.000Z,283.42521994135194
2023-05-12T08:57:55.000Z,285.86412512219266
2023-05-12T08:58:57.000Z,284.8885630498564
2023-05-12T08:59:59.000Z,285.3763440860245
2023-05-12T09:01:02.000Z,285.3763440860245
2023-05-12T09:02:04.000Z,285.86412512219266
2023-05-12T09:03:06.000Z,285.3763440860245
2023-05-12T09:04:09.000Z,285.86412512219266
2023-05-12T09:05:11.000Z,285.3763440860245
2023-05-12T09:06:13.000Z,286.83968719452895
2023-05-12T09:07:15.000Z,285.3763440860245
2023-05-12T09:08:17.000Z,285.3763440860245
2023-05-12T09:09:20.000Z,285.3763440860245
2023-05-12T09:10:22.000Z,284.40078201368823
2023-05-12T09:11:24.000Z,284.40078201368823
2023-05-12T09:12:27.000Z,284.40078201368823
2023-05-12T09:13:29.000Z,284.40078201368823
2023-05-12T09:14:32.000Z,282.9374389051838
2023-05-12T09:15:34.000Z,281.9618768328475
2023-05-12T09:16:36.000Z,282.9374389051838
2023-05-12T09:17:38.000Z,283.9130009775201
2023-05-12T09:18:41.000Z,284.40078201368823
2023-05-12T09:19:43.000Z,283.9130009775201
2023-05-12T09:20:45.000Z,283.9130009775201
2023-05-12T09:21:48.000Z,284.40078201368823
2023-05-12T09:22:50.000Z,283.9130009775201
2023-05-12T09:23:52.000Z,283.9130009775201
2023-05-12T09:24:54.000Z,285.3763440860245
2023-05-12T09:25:57.000Z,285.3763440860245
2023-05-12T09:26:59.000Z,285.3763440860245
2023-05-12T09:28:02.000Z,285.86412512219266
2023-05-12T09:29:04.000Z,284.40078201368823
2023-05-12T09:30:06.000Z,285.86412512219266
2023-05-12T09:31:08.000Z,286.3519061583608